General Aviation Weather

Text Reports

Enter one or more of the following location identifiers separated by a space:

Zip Code, Four-Character ICAO or Three-Character IATA airport codes.

METAR - Aviation Routine Weather Report
KAVK - Alva, Oklahoma
Updated at 4:10 AM GMT on August 22, 2014 (11:10 PM CDT):
METAR KAVK 220410Z AUTO 17016KT 10SM CLR 30/20 A2989 RMK AO2
TAF - Terminal Area Forecast
KAVK - Alva, Oklahoma
Updated at 4:10 AM GMT on August 22, 2014 (11:10 PM CDT):
No TAF is currently available for this location.
Decoded:
No decoded TAF is available.
PIREP - Pilot Weather Report
KAVK - Alva, Oklahoma
Updated at 4:10 AM GMT on August 22, 2014 (11:10 PM CDT):
No PIREP is currently available for this location.
AIRMET - Airmens Meteorological Information
KAVK - Alva, Oklahoma
Updated at 4:10 AM GMT on August 22, 2014 (11:10 PM CDT):
No AIRMET is currently available for this location.
SIGMET - Significant Meteorological Information
KAVK - Alva, Oklahoma
Updated at 4:10 AM GMT on August 22, 2014 (11:10 PM CDT):
No SIGMET is currently available for this location.
NOTAM - Notice to Airmen
KAVK - Alva, Oklahoma
Updated at 4:10 AM GMT on August 22, 2014 (11:10 PM CDT):
No NOTAM is currently available for this location.
Forecast Area
KAVK - Alva, Oklahoma
Updated at 4:10 AM GMT on August 22, 2014 (11:10 PM CDT):
No NOTAM is currently available for this location.
Aviation Weather Maps